createdAt,value
2022-08-17T00:00:44.164Z,11.80
2022-08-17T00:03:09.999Z,11.95
2022-08-17T00:05:42.996Z,12.97
2022-08-17T00:08:11.778Z,12.77
2022-08-17T00:10:41.042Z,12.98
2022-08-17T00:13:16.167Z,12.52
2022-08-17T00:15:44.842Z,13.13
2022-08-17T00:18:53.868Z,12.05
2022-08-17T00:21:05.228Z,11.93
2022-08-17T00:23:39.318Z,12.00
2022-08-17T00:26:14.223Z,13.45
2022-08-17T00:28:42.622Z,11.63
2022-08-17T00:31:11.577Z,11.55
2022-08-17T00:33:42.503Z,11.65
2022-08-17T00:36:12.703Z,11.13
2022-08-17T00:38:41.331Z,12.18
2022-08-17T00:41:12.155Z,12.07
2022-08-17T00:43:44.126Z,11.25
2022-08-17T00:46:15.386Z,12.75
2022-08-17T00:48:44.269Z,11.43
2022-08-17T00:51:19.888Z,12.52
2022-08-17T00:53:54.690Z,11.55
2022-08-17T00:56:31.472Z,11.57
2022-08-17T00:58:59.777Z,11.27
2022-08-17T01:01:28.215Z,12.30
2022-08-17T01:03:59.841Z,10.70
2022-08-17T01:06:30.284Z,13.07
2022-08-17T01:09:00.888Z,11.73
2022-08-17T01:11:30.492Z,12.45
2022-08-17T01:13:58.506Z,11.27
2022-08-17T01:16:29.383Z,11.40
2022-08-17T01:19:00.559Z,12.45
2022-08-17T01:21:37.352Z,12.88
2022-08-17T01:24:07.527Z,11.45
2022-08-17T01:26:37.025Z,12.52
2022-08-17T01:29:06.820Z,12.48
2022-08-17T01:31:39.236Z,12.18
2022-08-17T01:34:10.433Z,12.80
2022-08-17T01:36:39.745Z,12.60
2022-08-17T01:39:14.016Z,11.57
2022-08-17T01:41:42.955Z,11.95
2022-08-17T01:44:12.505Z,13.32
2022-08-17T01:46:40.697Z,14.27
2022-08-17T01:49:10.398Z,14.00
2022-08-17T01:51:39.477Z,14.73
2022-08-17T01:54:11.579Z,13.85
2022-08-17T01:56:42.453Z,14.55
2022-08-17T01:59:10.544Z,14.88
2022-08-17T02:01:39.127Z,13.50
2022-08-17T02:04:09.237Z,13.68
2022-08-17T02:06:52.960Z,13.82
2022-08-17T02:09:25.504Z,13.10
2022-08-17T02:11:56.391Z,13.77
2022-08-17T02:14:25.899Z,14.05
2022-08-17T02:16:56.215Z,13.73
2022-08-17T02:19:24.472Z,14.20
2022-08-17T02:21:54.962Z,13.48
2022-08-17T02:25:01.189Z,13.60
2022-08-17T02:27:16.128Z,13.43
2022-08-17T02:29:44.179Z,13.98
2022-08-17T02:32:20.889Z,13.75
2022-08-17T02:34:56.780Z,13.65
2022-08-17T02:37:25.197Z,13.30
2022-08-17T02:39:56.959Z,13.18
2022-08-17T02:42:31.510Z,13.02
2022-08-17T02:45:00.679Z,13.13
2022-08-17T02:47:28.976Z,12.38
2022-08-17T02:49:57.446Z,12.68
2022-08-17T02:52:42.487Z,11.75
2022-08-17T02:55:23.919Z,12.23
2022-08-17T02:57:53.066Z,11.45
2022-08-17T03:00:23.349Z,12.10
2022-08-17T03:02:52.236Z,13.60
2022-08-17T03:05:25.183Z,13.55
2022-08-17T03:07:53.783Z,16.67
2022-08-17T03:10:25.096Z,18.50
2022-08-17T03:12:54.528Z,18.35
2022-08-17T03:15:26.259Z,17.98
2022-08-17T03:17:54.795Z,18.08
2022-08-17T03:20:24.959Z,17.00
2022-08-17T03:22:55.687Z,17.60
2022-08-17T03:25:34.726Z,18.08
2022-08-17T03:28:03.012Z,17.35
2022-08-17T03:30:31.919Z,18.83
2022-08-17T03:33:02.279Z,17.45
2022-08-17T03:35:32.473Z,18.50
2022-08-17T03:38:02.468Z,18.65
2022-08-17T03:40:36.985Z,18.70
2022-08-17T03:43:22.509Z,19.48
2022-08-17T03:46:28.943Z,19.95
2022-08-17T03:49:15.184Z,18.52
2022-08-17T03:52:00.953Z,19.17
2022-08-17T03:54:46.410Z,18.90
2022-08-17T03:57:16.501Z,18.15
2022-08-17T03:59:45.027Z,18.40
2022-08-17T04:02:18.546Z,18.73
2022-08-17T04:04:46.714Z,19.63
2022-08-17T04:07:14.932Z,18.05
2022-08-17T04:09:43.760Z,17.88
2022-08-17T04:12:12.686Z,17.77
2022-08-17T04:14:52.296Z,19.02
2022-08-17T04:17:24.543Z,17.17
2022-08-17T04:19:52.981Z,18.00
2022-08-17T04:22:31.938Z,17.77
2022-08-17T04:25:05.390Z,16.83
2022-08-17T04:27:33.455Z,16.60
2022-08-17T04:30:03.987Z,17.77
2022-08-17T04:33:05.527Z,17.02
2022-08-17T04:35:24.055Z,16.92
2022-08-17T04:37:52.466Z,18.27
2022-08-17T04:40:42.049Z,17.70
2022-08-17T04:43:12.327Z,17.42
2022-08-17T04:45:51.279Z,17.73
2022-08-17T04:51:04.481Z,16.65
2022-08-17T04:53:32.712Z,17.17
2022-08-17T04:56:01.782Z,17.08
2022-08-17T04:58:30.106Z,16.88
2022-08-17T05:01:02.278Z,16.92
2022-08-17T05:03:31.379Z,16.85
2022-08-17T05:06:01.474Z,16.55
2022-08-17T05:08:29.658Z,17.95
2022-08-17T05:10:58.082Z,16.67
2022-08-17T05:13:29.676Z,16.52
2022-08-17T05:16:01.894Z,16.98
2022-08-17T05:18:30.909Z,17.95
2022-08-17T05:20:59.288Z,16.75
2022-08-17T05:23:42.696Z,17.27
2022-08-17T05:26:25.509Z,18.08
2022-08-17T05:28:56.967Z,18.30
2022-08-17T05:31:26.892Z,16.98
2022-08-17T05:33:55.030Z,17.48
2022-08-17T05:36:41.933Z,18.35
2022-08-17T05:39:16.600Z,17.80
2022-08-17T05:41:47.056Z,16.98
2022-08-17T05:44:15.241Z,16.65
2022-08-17T05:46:49.893Z,16.90
2022-08-17T05:49:21.175Z,17.88
2022-08-17T05:52:20.167Z,16.38
2022-08-17T05:55:02.530Z,17.50
2022-08-17T05:57:52.904Z,17.60
2022-08-17T06:00:30.026Z,17.27
2022-08-17T06:03:20.072Z,17.92
2022-08-17T06:06:01.287Z,18.08
2022-08-17T06:08:39.608Z,18.05
2022-08-17T06:11:19.873Z,19.02
2022-08-17T06:14:09.527Z,18.67
2022-08-17T06:16:41.282Z,17.60
2022-08-17T06:19:16.702Z,19.00
2022-08-17T06:21:49.759Z,18.52
2022-08-17T06:24:29.768Z,19.00
2022-08-17T06:27:03.564Z,17.83
2022-08-17T06:29:42.395Z,19.00
2022-08-17T06:32:12.968Z,19.30
2022-08-17T06:34:44.343Z,18.60
2022-08-17T06:37:37.192Z,18.73
2022-08-17T06:40:20.717Z,19.00
2022-08-17T06:43:08.179Z,19.77
2022-08-17T06:45:40.477Z,19.45
2022-08-17T06:48:13.917Z,19.55
2022-08-17T06:50:48.790Z,20.35
2022-08-17T06:53:24.847Z,20.38
2022-08-17T06:56:03.006Z,19.55
2022-08-17T06:58:35.762Z,19.42
2022-08-17T07:01:11.624Z,19.50
2022-08-17T07:03:46.748Z,19.70
2022-08-17T07:06:19.560Z,20.77
2022-08-17T07:08:57.709Z,22.92
2022-08-17T07:11:31.807Z,24.10
2022-08-17T07:16:42.136Z,18.90
2022-08-17T07:19:11.199Z,19.50
2022-08-17T07:21:50.303Z,20.10
2022-08-17T07:24:31.305Z,21.00
2022-08-17T07:27:14.279Z,20.33
2022-08-17T07:29:46.717Z,20.42
2022-08-17T07:32:20.046Z,21.65
2022-08-17T07:35:11.165Z,19.67
2022-08-17T07:37:42.706Z,19.63
2022-08-17T07:40:32.058Z,20.83
2022-08-17T07:43:23.341Z,21.00
2022-08-17T07:46:35.191Z,20.58
2022-08-17T07:49:25.972Z,21.30
2022-08-17T07:52:13.561Z,19.50
2022-08-17T07:54:56.214Z,19.48
2022-08-17T07:57:36.402Z,19.30
2022-08-17T08:00:23.913Z,19.33
2022-08-17T08:03:16.705Z,18.95
2022-08-17T08:08:28.693Z,17.83
2022-08-17T08:11:06.281Z,18.20
2022-08-17T08:13:40.691Z,19.08
2022-08-17T08:16:24.430Z,18.10
2022-08-17T08:18:57.354Z,18.17
2022-08-17T08:21:47.599Z,17.23
2022-08-17T08:24:32.488Z,17.60
2022-08-17T08:27:13.955Z,17.63
2022-08-17T08:29:50.162Z,17.17
2022-08-17T08:32:23.838Z,16.85
2022-08-17T08:35:04.069Z,17.83
2022-08-17T08:37:44.431Z,19.35
2022-08-17T08:40:31.376Z,19.83
2022-08-17T08:43:11.667Z,19.08
2022-08-17T08:45:47.271Z,20.77
2022-08-17T08:48:53.239Z,20.48
2022-08-17T08:51:27.801Z,21.20
2022-08-17T08:54:05.042Z,21.00
2022-08-17T08:56:53.798Z,20.75
2022-08-17T08:59:42.029Z,21.00
2022-08-17T09:02:24.017Z,21.00
2022-08-17T09:05:14.426Z,21.00
2022-08-17T09:07:49.920Z,20.63
2022-08-17T09:10:28.483Z,21.17
2022-08-17T09:13:09.513Z,20.42
2022-08-17T09:15:46.317Z,20.90
2022-08-17T09:18:59.896Z,21.85
2022-08-17T09:21:18.204Z,21.38
2022-08-17T09:23:59.670Z,19.77
2022-08-17T09:26:35.189Z,18.85
2022-08-17T09:29:10.043Z,20.15
2022-08-17T09:31:49.401Z,19.92
2022-08-17T09:34:31.895Z,19.23
2022-08-17T09:37:08.687Z,21.50
2022-08-17T09:39:43.066Z,20.67
2022-08-17T09:42:19.049Z,19.85
2022-08-17T09:44:55.212Z,20.90
2022-08-17T09:47:31.911Z,20.55
2022-08-17T09:50:11.521Z,20.48
2022-08-17T09:52:40.158Z,20.38
2022-08-17T09:55:09.671Z,20.02
2022-08-17T09:58:04.983Z,20.23
2022-08-17T10:00:38.397Z,19.30
2022-08-17T10:03:28.335Z,19.63
2022-08-17T10:06:06.532Z,17.65
2022-08-17T10:08:42.803Z,17.58
2022-08-17T10:11:20.438Z,17.88
2022-08-17T10:14:37.640Z,16.45
2022-08-17T10:17:03.486Z,16.67
2022-08-17T10:19:44.265Z,16.23
2022-08-17T10:22:38.350Z,15.40
2022-08-17T10:25:37.787Z,14.25
2022-08-17T10:28:24.697Z,13.85
2022-08-17T10:31:30.852Z,14.88
2022-08-17T10:34:04.651Z,15.48
2022-08-17T10:36:48.341Z,14.05
2022-08-17T10:39:28.986Z,16.20
2022-08-17T10:42:03.365Z,14.75
2022-08-17T10:44:48.473Z,15.80
2022-08-17T10:47:19.124Z,15.98
2022-08-17T10:49:54.086Z,15.52
2022-08-17T10:52:51.885Z,16.25
2022-08-17T10:55:21.587Z,15.98
2022-08-17T10:57:55.033Z,16.40
2022-08-17T11:01:04.482Z,16.25
2022-08-17T11:03:33.547Z,15.30
2022-08-17T11:06:17.042Z,16.17
2022-08-17T11:09:15.937Z,16.33
2022-08-17T11:12:00.654Z,16.48
2022-08-17T11:15:08.586Z,16.27
2022-08-17T11:18:10.051Z,17.05
2022-08-17T11:21:13.406Z,16.67
2022-08-17T11:24:14.871Z,17.65
2022-08-17T11:26:49.167Z,16.88
2022-08-17T11:29:24.828Z,17.52
2022-08-17T11:32:03.616Z,17.73
2022-08-17T11:34:34.775Z,18.80
2022-08-17T11:37:27.081Z,18.67
2022-08-17T11:40:38.691Z,17.80
2022-08-17T11:43:39.519Z,19.20
2022-08-17T11:46:21.165Z,18.05
2022-08-17T11:49:19.768Z,18.38
2022-08-17T11:52:35.414Z,18.08
2022-08-17T11:55:31.946Z,18.70
2022-08-17T11:58:01.819Z,18.48
2022-08-17T12:00:57.790Z,19.98
2022-08-17T12:03:55.305Z,20.10
2022-08-17T12:06:46.222Z,18.70
2022-08-17T12:09:19.240Z,20.77
2022-08-17T12:12:12.818Z,20.67
2022-08-17T12:17:40.434Z,22.85
2022-08-17T12:20:15.181Z,22.67
2022-08-17T12:23:01.134Z,22.48
2022-08-17T12:25:36.951Z,22.42
2022-08-17T12:28:08.200Z,22.50
2022-08-17T12:30:38.720Z,23.25
2022-08-17T12:33:25.559Z,23.45
2022-08-17T12:36:00.255Z,24.15
2022-08-17T12:38:33.169Z,22.17
2022-08-17T12:41:24.681Z,23.27
2022-08-17T12:44:02.449Z,21.88
2022-08-17T12:46:37.777Z,23.63
2022-08-17T12:49:23.685Z,23.70
2022-08-17T12:51:56.016Z,23.02
2022-08-17T12:54:34.872Z,23.80
2022-08-17T12:57:11.302Z,23.95
2022-08-17T12:59:45.271Z,23.60
2022-08-17T13:02:32.581Z,24.60
2022-08-17T13:05:02.897Z,24.60
2022-08-17T13:07:35.408Z,25.52
2022-08-17T13:10:05.140Z,25.42
2022-08-17T13:12:36.134Z,24.98
2022-08-17T13:16:01.841Z,25.08
2022-08-17T13:18:40.361Z,25.67
2022-08-17T13:21:19.396Z,25.10
2022-08-17T13:23:59.897Z,26.02
2022-08-17T13:26:33.575Z,25.23
2022-08-17T13:29:02.744Z,27.25
2022-08-17T13:31:49.783Z,25.17
2022-08-17T13:34:48.964Z,26.00
2022-08-17T13:37:32.882Z,26.90
2022-08-17T13:40:03.791Z,27.92
2022-08-17T13:42:52.967Z,27.73
2022-08-17T13:45:50.402Z,27.55
2022-08-17T13:48:26.833Z,27.92
2022-08-17T13:51:18.242Z,27.55
2022-08-17T13:53:59.269Z,26.70
2022-08-17T13:56:57.609Z,27.75
2022-08-17T13:59:52.901Z,27.42
2022-08-17T14:02:25.994Z,27.85
2022-08-17T14:04:58.509Z,26.73
2022-08-17T14:07:37.760Z,27.13
2022-08-17T14:10:14.290Z,29.30
2022-08-17T14:12:45.870Z,29.40
2022-08-17T14:15:16.145Z,29.25
2022-08-17T14:17:44.784Z,28.55
2022-08-17T14:20:14.103Z,29.08
2022-08-17T14:22:47.938Z,30.10
2022-08-17T14:25:20.796Z,29.55
2022-08-17T14:27:52.647Z,30.30
2022-08-17T14:30:24.249Z,30.88
2022-08-17T14:32:53.655Z,28.92
2022-08-17T14:35:24.779Z,31.17
2022-08-17T14:37:53.896Z,31.23
2022-08-17T14:40:25.432Z,36.33
2022-08-17T14:42:56.855Z,34.67
2022-08-17T14:45:31.640Z,33.30
2022-08-17T14:48:05.717Z,34.40
2022-08-17T14:50:35.850Z,33.35
2022-08-17T14:53:08.523Z,34.45
2022-08-17T14:55:40.752Z,32.25
2022-08-17T14:58:09.847Z,34.30
2022-08-17T15:00:40.929Z,33.78
2022-08-17T15:03:09.034Z,32.50
2022-08-17T15:05:57.473Z,33.65
2022-08-17T15:11:22.065Z,31.90
2022-08-17T15:13:52.741Z,31.02
2022-08-17T15:16:21.692Z,29.75
2022-08-17T15:18:50.288Z,30.95
2022-08-17T15:21:18.713Z,30.38
2022-08-17T15:23:47.785Z,31.20
2022-08-17T15:26:26.216Z,30.40
2022-08-17T15:28:56.139Z,29.90
2022-08-17T15:31:31.664Z,28.75
2022-08-17T15:34:00.862Z,28.70
2022-08-17T15:36:29.139Z,27.52
2022-08-17T15:38:58.753Z,27.05
2022-08-17T15:41:31.215Z,27.67
2022-08-17T15:44:00.189Z,27.42
2022-08-17T15:46:28.777Z,26.30
2022-08-17T15:48:59.744Z,25.25
2022-08-17T15:51:30.497Z,24.70
2022-08-17T15:54:04.227Z,23.90
2022-08-17T15:56:46.593Z,24.83
2022-08-17T15:59:14.804Z,26.65
2022-08-17T16:03:14.330Z,25.58
2022-08-17T16:04:31.833Z,25.00
2022-08-17T16:07:01.074Z,26.08
2022-08-17T16:09:31.867Z,25.83
2022-08-17T16:12:20.290Z,25.38
2022-08-17T16:14:51.714Z,25.80
2022-08-17T16:17:38.278Z,24.98
2022-08-17T16:20:09.018Z,24.83
2022-08-17T16:22:39.605Z,26.45
2022-08-17T16:25:11.278Z,25.75
2022-08-17T16:27:39.906Z,25.63
2022-08-17T16:30:16.944Z,24.30
2022-08-17T16:32:46.976Z,22.80
2022-08-17T16:35:18.147Z,23.13
2022-08-17T16:37:47.009Z,21.67
2022-08-17T16:40:17.108Z,23.02
2022-08-17T16:42:48.401Z,22.92
2022-08-17T16:45:19.834Z,21.40
2022-08-17T16:47:50.088Z,21.80
2022-08-17T16:50:22.804Z,22.08
2022-08-17T16:52:51.774Z,22.67
2022-08-17T16:55:22.616Z,23.08
2022-08-17T16:57:53.095Z,21.98
2022-08-17T17:00:22.897Z,23.33
2022-08-17T17:02:51.649Z,22.40
2022-08-17T17:05:37.522Z,21.73
2022-08-17T17:08:12.765Z,21.55
2022-08-17T17:10:44.068Z,22.17
2022-08-17T17:13:22.204Z,22.80
2022-08-17T17:16:01.567Z,22.55
2022-08-17T17:18:40.210Z,20.88
2022-08-17T17:21:13.584Z,22.10
2022-08-17T17:23:53.678Z,22.27
2022-08-17T17:26:37.903Z,23.80
2022-08-17T17:29:21.174Z,20.63
2022-08-17T17:31:57.816Z,21.13
2022-08-17T17:34:31.157Z,21.50
2022-08-17T17:37:03.479Z,22.17
2022-08-17T17:39:43.575Z,21.92
2022-08-17T17:42:19.986Z,21.00
2022-08-17T17:44:52.114Z,22.88
2022-08-17T17:47:22.040Z,22.65
2022-08-17T17:49:50.065Z,22.77
2022-08-17T17:52:27.190Z,21.85
2022-08-17T17:55:05.711Z,23.48
2022-08-17T17:57:45.290Z,22.13
2022-08-17T18:00:18.005Z,22.90
2022-08-17T18:03:01.112Z,22.85
2022-08-17T18:05:44.643Z,23.55
2022-08-17T18:08:44.796Z,22.87
2022-08-17T18:11:34.849Z,23.63
2022-08-17T18:14:33.735Z,23.23
2022-08-17T18:17:02.639Z,23.10
2022-08-17T18:19:33.689Z,23.65
2022-08-17T18:22:08.735Z,24.10
2022-08-17T18:24:44.742Z,24.25
2022-08-17T18:27:23.270Z,24.70
2022-08-17T18:29:53.262Z,26.85
2022-08-17T18:32:33.001Z,24.77
2022-08-17T18:35:19.479Z,24.05
2022-08-17T18:37:49.677Z,24.80
2022-08-17T18:40:38.506Z,25.75
2022-08-17T18:43:14.662Z,27.00
2022-08-17T18:45:47.181Z,26.55
2022-08-17T18:48:32.990Z,25.85
2022-08-17T18:51:21.588Z,27.30
2022-08-17T18:54:18.131Z,25.67
2022-08-17T18:56:54.668Z,28.45
2022-08-17T18:59:32.249Z,26.25
2022-08-17T19:02:45.679Z,26.23
2022-08-17T19:05:34.175Z,27.67
2022-08-17T19:08:33.735Z,27.08
2022-08-17T19:11:05.629Z,27.92
2022-08-17T19:13:38.339Z,28.10
2022-08-17T19:16:15.015Z,28.42
2022-08-17T19:18:49.606Z,27.45
2022-08-17T19:21:25.033Z,28.10
2022-08-17T19:24:01.219Z,28.95
2022-08-17T19:26:53.539Z,28.80
2022-08-17T19:29:26.549Z,28.15
2022-08-17T19:32:00.574Z,29.63
2022-08-17T19:34:34.348Z,29.15
2022-08-17T19:37:11.463Z,27.80
2022-08-17T19:39:47.444Z,27.83
2022-08-17T19:42:35.062Z,29.60
2022-08-17T19:45:10.065Z,29.67
2022-08-17T19:47:54.674Z,30.38
2022-08-17T19:50:39.076Z,29.33
2022-08-17T19:53:20.730Z,28.73
2022-08-17T19:55:56.836Z,29.05
2022-08-17T19:58:37.756Z,29.40
2022-08-17T20:01:10.600Z,30.20
2022-08-17T20:03:53.473Z,30.95
2022-08-17T20:06:22.704Z,29.67
2022-08-17T20:08:58.812Z,31.50
2022-08-17T20:11:36.014Z,32.30
2022-08-17T20:14:08.192Z,30.70
2022-08-17T20:16:36.232Z,29.05
2022-08-17T20:19:11.172Z,29.27
2022-08-17T20:21:47.047Z,28.85
2022-08-17T20:24:22.344Z,29.30
2022-08-17T20:26:58.939Z,28.70
2022-08-17T20:29:39.779Z,28.63
2022-08-17T20:32:30.896Z,30.52
2022-08-17T20:35:10.996Z,29.75
2022-08-17T20:37:44.319Z,30.20
2022-08-17T20:40:20.704Z,32.13
2022-08-17T20:42:51.207Z,31.38
2022-08-17T20:46:00.849Z,29.55
2022-08-17T20:48:38.493Z,29.98
2022-08-17T20:51:27.374Z,29.73
2022-08-17T20:54:34.165Z,31.77
2022-08-17T20:57:02.645Z,29.02
2022-08-17T21:00:13.879Z,30.85
2022-08-17T21:02:44.697Z,29.88
2022-08-17T21:05:32.354Z,29.73
2022-08-17T21:08:16.876Z,29.35
2022-08-17T21:10:47.694Z,30.52
2022-08-17T21:13:53.577Z,28.50
2022-08-17T21:16:41.307Z,29.80
2022-08-17T21:19:44.383Z,29.13
2022-08-17T21:22:40.593Z,29.02
2022-08-17T21:25:21.952Z,30.30
2022-08-17T21:28:02.481Z,29.38
2022-08-17T21:30:51.727Z,28.50
2022-08-17T21:33:28.055Z,28.75
2022-08-17T21:36:25.510Z,27.75
2022-08-17T21:39:01.324Z,29.17
2022-08-17T21:41:34.551Z,28.63
2022-08-17T21:44:08.217Z,28.40
2022-08-17T21:46:40.062Z,28.02
2022-08-17T21:49:13.682Z,27.55
2022-08-17T21:51:46.478Z,28.17
2022-08-17T21:54:27.131Z,26.67
2022-08-17T21:56:55.570Z,27.42
2022-08-17T21:59:28.879Z,27.25
2022-08-17T22:01:59.539Z,25.57
2022-08-17T22:04:31.649Z,26.83
2022-08-17T22:07:01.952Z,27.40
2022-08-17T22:09:32.187Z,26.17
2022-08-17T22:12:09.195Z,26.13
2022-08-17T22:14:52.935Z,25.45
2022-08-17T22:17:25.402Z,24.98
2022-08-17T22:19:57.431Z,25.58
2022-08-17T22:22:29.913Z,26.35
2022-08-17T22:25:01.449Z,25.33
2022-08-17T22:27:49.877Z,24.98
2022-08-17T22:30:27.370Z,24.45
2022-08-17T22:32:55.785Z,24.27
2022-08-17T22:35:42.091Z,22.95
2022-08-17T22:38:44.021Z,24.42
2022-08-17T22:41:32.205Z,22.00
2022-08-17T22:44:10.195Z,22.77
2022-08-17T22:46:48.608Z,22.30
2022-08-17T22:49:26.776Z,22.42
2022-08-17T22:52:04.770Z,21.30
2022-08-17T22:54:50.631Z,19.25
2022-08-17T22:57:52.131Z,20.23
2022-08-17T23:00:37.356Z,18.50
2022-08-17T23:03:18.936Z,19.33
2022-08-17T23:05:49.488Z,18.65
2022-08-17T23:08:21.297Z,18.33
2022-08-17T23:10:49.886Z,17.50
2022-08-17T23:13:18.083Z,17.40
2022-08-17T23:15:48.160Z,19.17
2022-08-17T23:18:17.565Z,16.77
2022-08-17T23:20:45.970Z,17.67
2022-08-17T23:23:15.861Z,15.95
2022-08-17T23:25:46.187Z,17.38
2022-08-17T23:28:14.351Z,17.17
2022-08-17T23:30:44.793Z,17.08
2022-08-17T23:33:19.981Z,16.73
2022-08-17T23:35:48.022Z,16.30
2022-08-17T23:38:15.990Z,16.70
2022-08-17T23:40:45.514Z,16.13
2022-08-17T23:43:23.881Z,16.52
2022-08-17T23:45:53.554Z,15.27
2022-08-17T23:48:35.115Z,16.08
2022-08-17T23:51:09.479Z,15.73
2022-08-17T23:53:40.378Z,15.98
2022-08-17T23:56:11.421Z,15.55
2022-08-17T23:58:42.096Z,15.20
